Tiempo atmosférico en la estación meteorológica de Machichaco, Bizkaia (93 m.)



Fecha
DESCASC
Temp. máxima en grados centígrados (hora)
DESCASC
Temp. mínima en grados centígrados (hora)
DESCASC
Temp. media en grados centígrados
DESCASC
Racha de viento máxima en m/sg (hora)
DESCASC
Velocidad máxima media en intervalos de 10 minutos(hora)
DESCASC
Precipitaciones diarias en mm
DESCASC
Precipitaciones de 00:00 a 06:00 en mm
DESCASC
Precipitaciones de 06:00 a 12:00 en mm
DESCASC
Precipitaciones de 12:00 a 18:00 en mm
DESCASC
Precipitaciones de 18:00 a 24:00 en mm
DESCASC
26-11-2020 17.9 (12:50) 12.5 (04:20) 15.2 8.33 (01:40) 5.56 (08:00) 0 0 0 0 0
25-11-2020 16.3 (14:00) 12.5 (21:10) 14.4 18.33 (08:10) 12.5 (08:10) 0 0 0 0 0
24-11-2020 17.6 (11:40) 9.4 (06:50) 13.5 13.33 (10:00) 8.06 (10:00) 0 0 0 0 0
23-11-2020 14.7 (11:10) 9.3 (06:30) 12 7.78 (22:30) 5.56 (17:50) 0 0 0 0 0
22-11-2020 14.7 (12:10) 9 (00:00) 11.8 9.17 (13:50) 7.22 (13:50) 0 0 0 0 0
21-11-2020 11.2 (13:10) 8.4 (00:00) 9.8 10.83 (17:20) 8.06 (16:20) 0 0 0 0 0
20-11-2020 13.6 (12:00) 10.3 (00:00) 12 11.11 (17:50) 8.06 (17:30) 0.4 0 0.4 0 0
19-11-2020 16.8 (00:00) 11.1 (00:00) 13.9 11.67 (04:00) 8.61 (04:00) 2.8 0 2.8 0 0
18-11-2020 24 (11:40) 16.8 (00:00) 20.4 19.72 (00:30) 13.33 (01:00) 0 0 0 0 0
17-11-2020 21.6 (23:20) 11.2 (00:00) 16.4 18.33 (23:59) 12.22 (23:20) 0 0 0 0 0
16-11-2020 15.7 (15:30) 11.9 (00:00) 13.8 13.33 (01:50) 10.56 (02:10) 1.8 1.2 0.6 0 0
15-11-2020 22.3 (13:20) 13.1 (00:00) 17.7 18.33 (10:10) 14.17 (15:40) 4.6 0 0 1.2 3.4
14-11-2020 20.7 (14:40) 15.4 (00:00) 18.1 20.83 (03:30) 14.44 (03:40) 0 0 0 0 0
13-11-2020 21.1 (11:40) 13.2 (00:00) 17.2 15.28 (04:20) 10 (04:00) 0 0 0 0 0
12-11-2020 19.6 (12:30) 15 (00:00) 17.3 8.06 (00:50) 4.72 (17:20) 0 0 0 0 0
11-11-2020 19.6 (14:50) 12.1 (00:00) 15.9 18.33 (09:10) 12.22 (09:20) 0 0 0 0 0
10-11-2020 16.5 (14:50) 13.1 (00:00) 14.8 8.89 (07:10) 6.94 (07:10) 12.8 8.4 4.4 0 0
09-11-2020 21.3 (14:00) 14.6 (00:00) 17.9 13.61 (00:20) 7.78 (09:20) 0 0 0 0 0
08-11-2020 21.9 (13:30) 16.9 (00:00) 19.4 15.28 (06:20) 8.89 (03:10) 0 0 0 0 0
07-11-2020 20.3 (00:10) 13.8 (00:00) 17 13.33 (07:00) 8.61 (07:30) 10.8 0 10.6 0.2 0
06-11-2020 21.1 (14:10) 13.5 (00:00) 17.3 15.28 (21:40) 8.06 (20:00) 0.2 0.2 0 0 0
05-11-2020 14.3 (23:10) 10.1 (00:00) 12.2 13.89 (00:10) 10.56 (01:10) 0 0 0 0 0
04-11-2020 12.3 (11:50) 9 (00:00) 10.7 16.39 (22:30) 13.06 (20:50) 12.6 2.4 10.2 0 0
03-11-2020 13.7 (14:40) 10.3 (00:00) 12 15.83 (10:20) 12.78 (10:30) 6.2 3.8 1.2 0.6 0.6
02-11-2020 25.3 (14:00) 12.6 (00:00) 18.9 23.06 (14:40) 17.78 (14:50) 0.2 0 0 0 0.2
01-11-2020 26.1 (12:00) 20.8 (00:00) 23.4 17.5 (20:40) 11.67 (18:50) 0 0 0 0 0
31-10-2020 25.7 (16:00) 13.5 (00:00) 19.6 16.39 (07:40) 10.83 (07:40) 0 0 0 0 0
30-10-2020 16.5 (14:40) 12.7 (00:00) 14.6 5.83 (10:20) 4.17 (12:30) 0 0 0 0 0
29-10-2020 17.8 (13:50) 13 (00:00) 15.4 7.78 (20:00) 4.72 (16:10) 0 0 0 0 0
28-10-2020 16.6 (13:10) 13.1 (00:00) 14.9 11.67 (05:20) 9.44 (05:20) 2.4 2.4 0 0 0

Gráficas

Temp. máximas Temp. mínimas Temp. medias Precipitaciones Rachas de viento máximas Velocidades máximas media en intervalos de 10 minutos

Datos horarios

Fecha y hora oficial Temperatura (ºC) Velocidad del viento (km/h) Dirección del viento Racha (km/h) Dirección de racha Precipitación (mm) Presión (hPa) Tendencia (hPa) Humedad (%)
2020-11-26 23:00:00 15 10 Este 21 Sudeste 0 -- -- 66
2020-11-26 22:00:00 14.9 5 Este 20 Sudeste 0 -- -- 65
2020-11-26 21:00:00 15.6 11 Sudeste 21 Sudeste 0 -- -- 63
2020-11-26 20:00:00 15.5 9 Este 22 Este 0 -- -- 63
2020-11-26 19:00:00 15.7 11 Sudeste 20 Este 0 -- -- 61
2020-11-26 18:00:00 15.4 7 Este 14 Este 0 -- -- 64
2020-11-26 17:00:00 15.8 4 Sudeste 17 Este 0 -- -- 63
2020-11-26 16:00:00 16.9 6 Este 16 Sudeste 0 -- -- 65
2020-11-26 15:00:00 17.2 5 Sudeste 21 Este 0 -- -- 60
2020-11-26 14:00:00 17.4 12 Sudeste 22 Este 0 -- -- 55
2020-11-26 13:00:00 17.8 6 Sur 22 Sudeste 0 -- -- 56
2020-11-26 12:00:00 16.9 4 Sudeste 19 Sudeste 0 -- -- 61
2020-11-26 11:00:00 15.5 9 Sudeste 22 Este 0 -- -- 64
2020-11-26 10:00:00 15.1 12 Este 23 Este 0 -- -- 62
2020-11-26 09:00:00 14.1 13 Sudeste 26 Este 0 -- -- 66
2020-11-26 08:00:00 14.1 20 Este 26 Este 0 -- -- 62
2020-11-26 07:00:00 13.7 10 Este 20 Este 0 -- -- 62
2020-11-26 06:00:00 13.6 8 Sudeste 26 Este 0 -- -- 65
2020-11-26 05:00:00 13.4 13 Este 26 Este 0 -- -- 66
2020-11-26 04:00:00 12.7 14 Este 22 Este 0 -- -- 70
2020-11-26 03:00:00 13.1 10 Sudeste 23 Sudeste 0 -- -- 64
2020-11-26 02:00:00 13.4 13 Sudeste 30 Sudeste 0 -- -- 62
2020-11-26 01:00:00 13.1 13 Este 29 Este 0 -- -- 63
2020-11-26 00:00:00 13.1 17 Este 26 Este 0 -- -- 63
2020-11-25 23:00:00 12.8 14 Este 26 Este 0 -- -- 63
2020-11-25 22:00:00 12.6 10 Sudeste 19 Sudeste 0 -- -- 63
2020-11-25 21:00:00 12.6 12 Este 17 Este 0 -- -- 64
2020-11-25 20:00:00 13.4 9 Sudeste 23 Este 0 -- -- 57
2020-11-25 19:00:00 13 10 Sudeste 22 Sudeste 0 -- -- 63
2020-11-25 18:00:00 13.1 9 Este 21 Este 0 -- -- 62
2020-11-25 17:00:00 13.7 5 Sudeste 18 Sudeste 0 -- -- 58
2020-11-25 16:00:00 15.4 8 Sudeste 24 Sudeste 0 -- -- 53
2020-11-25 15:00:00 15.8 7 Sur 26 Este 0 -- -- 54
2020-11-25 14:00:00 16.3 6 Sudeste 28 Sur 0 -- -- 54
2020-11-25 13:00:00 -- -- -- -- -- -- -- -- --
2020-11-25 12:00:00 15 21 Sur 56 Sur 0 -- -- 55
2020-11-25 11:00:00 14.3 30 Sur 59 Sur 0 -- -- 55
2020-11-25 10:00:00 13.9 37 Sur 60 Sur 0 -- -- 55
2020-11-25 09:00:00 13.4 32 Sur 66 Sur 0 -- -- 55
2020-11-25 08:00:00 13.2 44 Sur 63 Sur 0 -- -- 55
2020-11-25 07:00:00 13.3 29 Sur 47 Sur 0 -- -- 55
2020-11-25 06:00:00 13.2 16 Sur 33 Sur 0 -- -- 57
2020-11-25 05:00:00 13 16 Sur 39 Sudoeste 0 -- -- 60
2020-11-25 04:00:00 12.9 10 Sur 32 Sudoeste 0 -- -- 59
2020-11-25 03:00:00 13.7 10 Sur 40 Sudoeste 0 -- -- 57
2020-11-25 02:00:00 14.3 10 Este 57 Sur 0 -- -- 54
2020-11-25 01:00:00 14.8 31 Sur 54 Sur 0 -- -- 52
2020-11-25 00:00:00 14.5 22 Sur 45 Sudoeste 0 -- -- 52
2020-11-24 23:00:00 13.9 8 Este 33 Sudoeste 0 -- -- 54
2020-11-24 22:00:00 13.3 8 Sur 26 Sudoeste 0 -- -- 52
2020-11-24 21:00:00 14 6 Sur 17 Sur 0 -- -- 49
2020-11-24 20:00:00 13.7 8 Sudeste 13 Sudeste 0 -- -- 52
2020-11-24 19:00:00 14.2 9 Sudeste 15 Sudeste 0 -- -- 51
2020-11-24 18:00:00 14.4 7 Sudeste 14 Sudeste 0 -- -- 52
2020-11-24 17:00:00 15 6 Sudeste 10 Sur 0 -- -- 51
2020-11-24 16:00:00 17.2 6 Sudeste 17 Sur 0 -- -- 48
2020-11-24 15:00:00 16.6 8 Sur 33 Sudoeste 0 -- -- 48
2020-11-24 14:00:00 16.6 16 Sudoeste 40 Sudoeste 0 -- -- 46
2020-11-24 13:00:00 16.5 13 Sudoeste 41 Sudoeste 0 -- -- 43
2020-11-24 12:00:00 17.2 21 Sudoeste 45 Sudoeste 0 -- -- 40
2020-11-24 11:00:00 16.7 25 Sudoeste 46 Sudoeste 0 -- -- 35
2020-11-24 10:00:00 16 29 Sudoeste 48 Sudoeste 0 -- -- 37
2020-11-24 09:00:00 15.8 28 Sur 42 Sudoeste 0 -- -- 34
2020-11-24 08:00:00 13.3 8 Sur 23 Sur 0 -- -- 41
2020-11-24 07:00:00 9.4 9 Sudeste 26 Sudeste 0 -- -- 67
2020-11-24 06:00:00 10.4 13 Sudeste 24 Sudeste 0 -- -- 60
2020-11-24 05:00:00 10 14 Sudeste 22 Sudeste 0 -- -- 68
2020-11-24 04:00:00 10.6 13 Sudeste 22 Sudeste 0 -- -- 71
2020-11-24 03:00:00 11.1 15 Sudeste 24 Sudeste 0 -- -- 79
2020-11-24 02:00:00 10.8 11 Este 23 Este 0 -- -- 81
2020-11-24 01:00:00 11.3 15 Este 23 Este 0 -- -- 80
2020-11-24 00:00:00 11.6 14 Este 24 Sudeste 0 -- -- 80
2020-11-23 23:00:00 11.7 15 Sudeste 28 Sudeste 0 -- -- 84
2020-11-23 22:00:00 11.7 16 Sudeste 27 Sudeste 0 -- -- 85
2020-11-23 21:00:00 11.8 15 Sudeste 26 Sudeste 0 -- -- 84
2020-11-23 20:00:00 11.7 14 Sudeste 22 Este 0 -- -- 83
2020-11-23 19:00:00 11.7 13 Sudeste 22 Sudeste 0 -- -- 85
2020-11-23 18:00:00 12.2 17 Este 27 Este 0 -- -- 83
2020-11-23 17:00:00 12.5 18 Este 26 Este 0 -- -- 80
2020-11-23 16:00:00 13.3 16 Este 22 Este 0 -- -- 77
2020-11-23 15:00:00 13.8 12 Este 17 Este 0 -- -- 75
2020-11-23 14:00:00 13.9 11 Este 14 Este 0 -- -- 75
2020-11-23 13:00:00 14.5 8 Este 15 Este 0 -- -- 71
2020-11-23 12:00:00 14.5 9 Este 13 Este 0 -- -- 69
2020-11-23 11:00:00 14.5 5 Este 8 Este 0 -- -- 72
2020-11-23 10:00:00 13.8 3 Sudeste 7 Este 0 -- -- 73
2020-11-23 09:00:00 10.7 3 Sur 4 Sudeste 0 -- -- 83
2020-11-23 08:00:00 10.1 0 Calma 4 Sudeste 0 -- -- 83
2020-11-23 07:00:00 9.7 2 Sudoeste 5 Sudoeste 0 -- -- 86
2020-11-23 06:00:00 9.6 2 Oeste 4 Sudoeste 0 -- -- 88
2020-11-23 05:00:00 9.7 0 Calma 5 Oeste 0 -- -- 88
2020-11-23 04:00:00 9.8 4 Sudoeste 14 Sudoeste 0 -- -- 88
2020-11-23 03:00:00 10.8 11 Sudoeste 17 Oeste 0 -- -- 89
2020-11-23 02:00:00 11 12 Oeste 21 Oeste 0 -- -- 90
2020-11-23 01:00:00 11.3 15 Oeste 23 Oeste 0 -- -- 88
2020-11-23 00:00:00 11.5 15 Oeste 22 Sudoeste 0 -- -- 90
2020-11-22 23:00:00 11.8 15 Oeste 23 Oeste 0 -- -- 89
2020-11-22 22:00:00 11.5 11 Oeste 19 Oeste 0 -- -- 89
2020-11-22 21:00:00 11.8 13 Oeste 18 Oeste 0 -- -- 89
2020-11-22 20:00:00 12 10 Oeste 22 Oeste 0 -- -- 87
2020-11-22 19:00:00 12.1 14 Oeste 22 Oeste 0 -- -- 85
2020-11-22 18:00:00 12.3 13 Oeste 21 Oeste 0 -- -- 84
2020-11-22 17:00:00 12.9 9 Oeste 25 Oeste 0 -- -- 82
2020-11-22 16:00:00 13.7 17 Oeste 28 Oeste 0 -- -- 80
2020-11-22 15:00:00 13.8 13 Oeste 30 Oeste 0 -- -- 76
2020-11-22 14:00:00 13.4 21 Oeste 33 Oeste 0 -- -- 69
2020-11-22 13:00:00 13.7 13 Oeste 21 Noroeste 0 -- -- 57
2020-11-22 12:00:00 14.5 4 Este 11 Oeste 0 -- -- 56
2020-11-22 11:00:00 13.7 2 Oeste 6 Oeste 0 -- -- 59
2020-11-22 10:00:00 13.2 3 Este 5 Nordeste 0 -- -- 63
2020-11-22 09:00:00 10.4 3 Norte 8 Oeste 0 -- -- 59
2020-11-22 08:00:00 9.8 5 Oeste 10 Oeste 0 -- -- 66
2020-11-22 07:00:00 9.9 3 Sudoeste 12 Sudeste 0 -- -- 55
2020-11-22 06:00:00 9.4 10 Sudeste 18 Sudeste 0 -- -- 55
2020-11-22 05:00:00 10.1 12 Sudeste 26 Sudeste 0 -- -- 59
2020-11-22 04:00:00 9.5 17 Sudeste 25 Sudeste 0 -- -- 67
2020-11-22 03:00:00 9.1 14 Sudeste 20 Sudeste 0 -- -- 70
2020-11-22 02:00:00 9.8 12 Sudeste 22 Este 0 -- -- 68
2020-11-22 01:00:00 9.7 13 Sudeste 27 Sudeste 0 -- -- 70
2020-11-22 00:00:00 10 17 Sudeste 29 Este 0 -- -- 73
2020-11-21 23:00:00 10.2 18 Sudeste 31 Sur 0 -- -- 75
2020-11-21 22:00:00 10.4 18 Sudeste 28 Sudeste 0 -- -- 74
2020-11-21 21:00:00 10.3 19 Sudeste 32 Este 0 -- -- 71
2020-11-21 20:00:00 9.9 19 Sudeste 31 Sudeste 0 -- -- 73
2020-11-21 19:00:00 9.8 15 Sudeste 30 Sudeste 0 -- -- 73
2020-11-21 18:00:00 10.3 19 Este 39 Este 0 -- -- 74
2020-11-21 17:00:00 10.5 27 Este 38 Este 0 -- -- 68
2020-11-21 16:00:00 11 28 Este 35 Este 0 -- -- 63
2020-11-21 15:00:00 11 27 Este 36 Este 0 -- -- 65
2020-11-21 14:00:00 11 26 Este 35 Este 0 -- -- 63
2020-11-21 13:00:00 11.1 22 Este 34 Este 0 -- -- 65
2020-11-21 12:00:00 11 23 Este 37 Este 0 -- -- 62
2020-11-21 11:00:00 10.7 22 Este 35 Este 0 -- -- 61
2020-11-21 10:00:00 10.6 15 Sudeste 25 Sudeste 0 -- -- 66
2020-11-21 09:00:00 9.3 15 Este 24 Sudeste 0 -- -- 74
2020-11-21 08:00:00 8.5 16 Este 25 Este 0 -- -- 75
2020-11-21 07:00:00 8.5 16 Este 27 Este 0 -- -- 74
2020-11-21 06:00:00 8.4 10 Sudeste 21 Sudeste 0 -- -- 71
2020-11-21 05:00:00 8.5 12 Sudeste 23 Sudeste 0 -- -- 67
2020-11-21 04:00:00 8.8 12 Sudeste 23 Sudeste 0 -- -- 65
2020-11-21 03:00:00 8.9 12 Sudeste 24 Este 0 -- -- 70
2020-11-21 02:00:00 9.2 12 Sudeste 23 Sudeste 0 -- -- 72
2020-11-21 01:00:00 9.6 14 Sudeste 22 Sudeste 0 -- -- 75
2020-11-21 00:00:00 10.4 11 Este 21 Sudeste 0 -- -- 73
2020-11-20 23:00:00 10.5 11 Este 27 Nordeste 0 -- -- 74
2020-11-20 22:00:00 10.9 18 Este 26 Este 0 -- -- 70
2020-11-20 21:00:00 10.9 19 Este 29 Este 0 -- -- 71
2020-11-20 20:00:00 10.8 22 Este 35 Este 0 -- -- 73
2020-11-20 19:00:00 11 25 Este 35 Este 0 -- -- 73
2020-11-20 18:00:00 10.8 27 Este 40 Este 0 -- -- 73
2020-11-20 17:00:00 11.1 26 Este 38 Este 0 -- -- 72
2020-11-20 16:00:00 11.9 23 Este 32 Este 0 -- -- 74
2020-11-20 15:00:00 11.7 24 Este 33 Este 0 -- -- 75
2020-11-20 14:00:00 12.1 21 Este 28 Este 0 -- -- 77
2020-11-20 13:00:00 13.1 14 Este 21 Este 0 -- -- 73
2020-11-20 12:00:00 13.6 9 Este 20 Este 0 -- -- 73
2020-11-20 11:00:00 11.9 9 Sudeste 18 Este 0 -- -- 81
2020-11-20 10:00:00 12.1 12 Este 22 Este 0 -- -- 84
2020-11-20 09:00:00 11.8 9 Oeste 15 Oeste 0 -- -- 84
2020-11-20 08:00:00 10.9 3 Este 28 Este 0.2 -- -- 84
2020-11-20 07:00:00 11.3 5 Noroeste 15 Este 0.2 -- -- 86
2020-11-20 06:00:00 11.4 8 Este 16 Este 0 -- -- 81
2020-11-20 05:00:00 11.3 7 Sudoeste 16 Sudoeste 0 -- -- 78
2020-11-20 04:00:00 11.1 11 Oeste 15 Oeste 0 -- -- 82
2020-11-20 03:00:00 11.2 10 Sudoeste 14 Sudoeste 0 -- -- 81
2020-11-20 02:00:00 11.2 10 Oeste 15 Sudoeste 0 -- -- 84
2020-11-20 01:00:00 11.7 5 Este 14 Nordeste 0 -- -- 78
2020-11-20 00:00:00 12 4 Nordeste 11 Sudoeste 0 -- -- 74
2020-11-19 23:00:00 11.4 6 Sudoeste 19 Oeste 0 -- -- 86
2020-11-19 22:00:00 11.7 11 Oeste 23 Oeste 0 -- -- 82
2020-11-19 21:00:00 11.8 8 Oeste 15 Oeste 0 -- -- 81
2020-11-19 20:00:00 11.2 8 Oeste 12 Sudeste 0 -- -- 82
2020-11-19 19:00:00 11.6 6 Sur 9 Sur 0 -- -- 80
2020-11-19 18:00:00 11.9 6 Sudoeste 14 Noroeste 0 -- -- 80
2020-11-19 17:00:00 12.1 3 Noroeste 22 Noroeste 0 -- -- 81
2020-11-19 16:00:00 12.4 8 Norte 28 Noroeste 0 -- -- 78
2020-11-19 15:00:00 12.8 12 Noroeste 27 Noroeste 0 -- -- 77
2020-11-19 14:00:00 13.3 8 Oeste 15 Oeste 0 -- -- 82
2020-11-19 13:00:00 12.7 8 Oeste 16 Noroeste 0 -- -- 90
2020-11-19 12:00:00 12.9 9 Noroeste 28 Noroeste 0 -- -- 83
2020-11-19 11:00:00 12.6 9 Noroeste 19 Noroeste 0.4 -- -- 90
2020-11-19 10:00:00 13 5 Oeste 18 Noroeste 0.2 -- -- 90
2020-11-19 09:00:00 12.8 6 Noroeste 19 Oeste 1 -- -- 93
2020-11-19 08:00:00 13.2 10 Norte 24 Norte 1 -- -- 96
2020-11-19 07:00:00 14.2 9 Noroeste 16 Noroeste 0.2 -- -- 96
2020-11-19 06:00:00 15 8 Noroeste 14 Noroeste 0 -- -- 95
2020-11-19 05:00:00 15.5 13 Noroeste 42 Oeste 0 -- -- 93
2020-11-19 04:00:00 15.9 31 Oeste 42 Oeste 0 -- -- 82
2020-11-19 03:00:00 15.9 25 Oeste 36 Oeste 0 -- -- 79
2020-11-19 02:00:00 15.6 12 Sudoeste 17 Oeste 0 -- -- 82
2020-11-19 01:00:00 15.9 10 Sudoeste 13 Oeste 0 -- -- 80
2020-11-19 00:00:00 16.8 9 Oeste 19 Sur 0 -- -- 76
2020-11-18 23:00:00 18 11 Sudeste 22 Sudeste 0 -- -- 68
2020-11-18 22:00:00 18 13 Sudeste 23 Este 0 -- -- 70
2020-11-18 21:00:00 18.2 15 Sudeste 26 Sudeste 0 -- -- 68
2020-11-18 20:00:00 18.5 17 Este 27 Sudeste 0 -- -- 59
2020-11-18 19:00:00 18.4 16 Sudeste 25 Este 0 -- -- 56
2020-11-18 18:00:00 18.3 15 Este 22 Sudeste 0 -- -- 57
2020-11-18 17:00:00 18.8 12 Sudeste 20 Sudeste 0 -- -- 56
2020-11-18 16:00:00 20.2 10 Sudeste 21 Sudeste 0 -- -- 59
2020-11-18 15:00:00 20.7 10 Este 16 Nordeste 0 -- -- 60
2020-11-18 14:00:00 23 3 Este 7 Noroeste 0 -- -- 48
2020-11-18 13:00:00 23 4 Noroeste 14 Sudoeste 0 -- -- 46
2020-11-18 12:00:00 23.5 3 Norte 30 Sudoeste 0 -- -- 44
2020-11-18 11:00:00 23.1 20 Sudoeste 38 Sudoeste 0 -- -- 37
2020-11-18 10:00:00 22.2 26 Sudoeste 38 Sudoeste 0 -- -- 37
2020-11-18 09:00:00 21.7 19 Sudoeste 48 Sudoeste 0 -- -- 37
2020-11-18 08:00:00 21.2 30 Sudoeste 49 Sudoeste 0 -- -- 37
2020-11-18 07:00:00 20.9 37 Sudoeste 62 Sur 0 -- -- 38
2020-11-18 06:00:00 21.2 39 Sudoeste 62 Sur 0 -- -- 37
2020-11-18 05:00:00 21.3 45 Sudoeste 67 Sudoeste 0 -- -- 36
2020-11-18 04:00:00 21.1 44 Sudoeste 67 Sur 0 -- -- 36
2020-11-18 03:00:00 21.4 45 Sudoeste 68 Sur 0 -- -- 37
2020-11-18 02:00:00 21.5 47 Sudoeste 68 Sudoeste 0 -- -- 36
2020-11-18 01:00:00 21.1 48 Sudoeste 71 Sudoeste 0 -- -- 31
2020-11-18 00:00:00 21.4 44 Sudoeste 66 Sudoeste 0 -- -- 30
2020-11-17 23:00:00 21.4 41 Sur 56 Sudoeste 0 -- -- 31
2020-11-17 22:00:00 21.2 26 Sudoeste 41 Sudoeste 0 -- -- 35
2020-11-17 21:00:00 18.6 14 Sur 32 Sudoeste 0 -- -- 45
2020-11-17 20:00:00 15.5 13 Sudeste 22 Sur 0 -- -- 72
2020-11-17 19:00:00 14.8 13 Sudeste 21 Sudeste 0 -- -- 80
2020-11-17 18:00:00 14.1 15 Sudeste 27 Sudeste 0 -- -- 87
2020-11-17 17:00:00 14.1 17 Este 29 Este 0 -- -- 87
2020-11-17 16:00:00 14.9 20 Este 32 Este 0 -- -- 80
2020-11-17 15:00:00 14.9 22 Este 35 Sudeste 0 -- -- 76
2020-11-17 14:00:00 14.6 25 Este 37 Este 0 -- -- 76
2020-11-17 13:00:00 14.5 25 Este 38 Este 0 -- -- 75
2020-11-17 12:00:00 14.4 23 Este 32 Este 0 -- -- 76
2020-11-17 11:00:00 14.3 19 Este 27 Este 0 -- -- 69
2020-11-17 10:00:00 13.6 18 Este 27 Sudeste 0 -- -- 70
2020-11-17 09:00:00 13 18 Sudeste 28 Este 0 -- -- 66
2020-11-17 08:00:00 11.8 15 Sudeste 23 Sudeste 0 -- -- 73
2020-11-17 07:00:00 12 14 Sudeste 22 Sudeste 0 -- -- 70
2020-11-17 06:00:00 11.8 13 Sudeste 24 Sudeste 0 -- -- 71
2020-11-17 05:00:00 11.5 12 Sudeste 25 Este 0 -- -- 74
2020-11-17 04:00:00 12.4 14 Sudeste 24 Este 0 -- -- 69
2020-11-17 03:00:00 12.6 13 Sudeste 23 Sudeste 0 -- -- 72
2020-11-17 02:00:00 12.5 12 Sudeste 21 Sudeste 0 -- -- 72
2020-11-17 01:00:00 12.3 11 Sudeste 22 Este 0 -- -- 72
2020-11-17 00:00:00 12.8 11 Sudeste 20 Sudeste 0 -- -- 70
2020-11-16 23:00:00 12.7 11 Sudeste 19 Sudeste 0 -- -- 74
2020-11-16 22:00:00 12.8 10 Sudeste 18 Sudeste 0 -- -- 81
2020-11-16 21:00:00 12.9 9 Sudeste 15 Este 0 -- -- 80
2020-11-16 20:00:00 12.9 9 Sudeste 19 Sudeste 0 -- -- 82
2020-11-16 19:00:00 12.9 8 Sudeste 13 Este 0 -- -- 86
2020-11-16 18:00:00 12.8 6 Este 9 Este 0 -- -- 85
2020-11-16 17:00:00 14 4 Este 6 Nordeste 0 -- -- 81
2020-11-16 16:00:00 15.3 3 Noroeste 10 Oeste 0 -- -- 75
2020-11-16 15:00:00 15.5 9 Oeste 14 Oeste 0 -- -- 76
2020-11-16 14:00:00 15.3 11 Oeste 16 Oeste 0 -- -- 76
2020-11-16 13:00:00 15.3 10 Oeste 17 Oeste 0 -- -- 76
2020-11-16 12:00:00 15.4 9 Oeste 15 Oeste 0 -- -- 79
2020-11-16 11:00:00 14.5 8 Oeste 16 Sudoeste 0 -- -- 82
2020-11-16 10:00:00 13.5 9 Oeste 19 Oeste 0 -- -- 87
2020-11-16 09:00:00 12.8 13 Oeste 28 Oeste 0.6 -- -- 90
2020-11-16 08:00:00 12.6 13 Oeste 27 Oeste 0 -- -- 90
2020-11-16 07:00:00 12.9 14 Oeste 28 Oeste 0 -- -- 87
2020-11-16 06:00:00 12.3 13 Oeste 30 Sudoeste 0.2 -- -- 92
2020-11-16 05:00:00 12.2 15 Oeste 41 Oeste 0.2 -- -- 94
2020-11-16 04:00:00 12.5 29 Oeste 42 Oeste 0.2 -- -- 96
2020-11-16 03:00:00 12.4 21 Oeste 46 Oeste 0.2 -- -- 94
2020-11-16 02:00:00 12.2 37 Oeste 48 Noroeste 0.4 -- -- 96
2020-11-16 01:00:00 13.6 24 Oeste 39 Oeste 0 -- -- 89
2020-11-16 00:00:00 13.5 21 Oeste 46 Oeste 0 -- -- 91
2020-11-15 23:00:00 13.6 36 Oeste 50 Oeste 0 -- -- 91
2020-11-15 22:00:00 13.5 20 Oeste 47 Oeste 0 -- -- 92
2020-11-15 21:00:00 13.8 40 Oeste 51 Oeste 0 -- -- 89
2020-11-15 20:00:00 13.4 40 Oeste 50 Oeste 0.4 -- -- 98
2020-11-15 19:00:00 13.8 44 Oeste 58 Oeste 3 -- -- 99
2020-11-15 18:00:00 14.2 34 Oeste 58 Oeste 0.4 -- -- 95
2020-11-15 17:00:00 14.2 40 Oeste 57 Oeste 0 -- -- 96
2020-11-15 16:00:00 14 40 Oeste 63 Oeste 0.8 -- -- 98
2020-11-15 15:00:00 15.4 42 Oeste 53 Oeste 0 -- -- 91
2020-11-15 14:00:00 16.4 48 Oeste 62 Oeste 0 -- -- 89
2020-11-15 13:00:00 22.1 26 Sudoeste 54 Sur 0 -- -- 54
2020-11-15 12:00:00 21.4 26 Sudoeste 63 Sudoeste 0 -- -- 55
2020-11-15 11:00:00 20.8 34 Sur 66 Sur 0 -- -- 57
2020-11-15 10:00:00 20.9 31 Sudoeste 60 Sur 0 -- -- 54
2020-11-15 09:00:00 20.5 36 Sur 65 Sur 0 -- -- 55
2020-11-15 08:00:00 19.9 35 Sudoeste 63 Sudoeste 0 -- -- 55
2020-11-15 07:00:00 20 31 Sudoeste 62 Sudoeste 0 -- -- 55
2020-11-15 06:00:00 19.7 31 Sur 57 Sudoeste 0 -- -- 55
2020-11-15 05:00:00 19.6 32 Sudoeste 59 Sur 0 -- -- 54
2020-11-15 04:00:00 19.4 30 Sudoeste 52 Sur 0 -- -- 55
2020-11-15 03:00:00 19.2 24 Sudoeste 54 Sudoeste 0 -- -- 56
2020-11-15 02:00:00 19.1 22 Sudoeste 53 Sur 0 -- -- 58
2020-11-15 01:00:00 18.9 28 Sudoeste 49 Sur 0 -- -- 57
2020-11-15 00:00:00 18.8 33 Sudoeste 60 Sudoeste 0 -- -- 55
2020-11-14 23:00:00 18.8 33 Sudoeste 62 Sur 0 -- -- 56
2020-11-14 22:00:00 18.9 37 Sudoeste 63 Sudoeste 0 -- -- 56
2020-11-14 21:00:00 19 32 Sudoeste 57 Sudoeste 0 -- -- 55
2020-11-14 20:00:00 19.2 33 Sudoeste 53 Sudoeste 0 -- -- 52
2020-11-14 19:00:00 18.9 28 Sudoeste 48 Sur 0 -- -- 53
2020-11-14 18:00:00 18.9 21 Sur 41 Sur 0 -- -- 55
2020-11-14 17:00:00 19.3 16 Sur 45 Sur 0 -- -- 54
2020-11-14 16:00:00 19.7 24 Sudoeste 45 Sur 0 -- -- 52
2020-11-14 15:00:00 20.6 24 Sur 58 Sur 0 -- -- 48
2020-11-14 14:00:00 20.2 33 Sudoeste 59 Sudoeste 0 -- -- 48
2020-11-14 13:00:00 19.5 25 Sudoeste 71 Sur 0 -- -- 49
2020-11-14 12:00:00 18.8 40 Sur 64 Sudoeste 0 -- -- 48
2020-11-14 11:00:00 18.3 20 Sur 56 Sudoeste 0 -- -- 50
2020-11-14 10:00:00 16.2 33 Sur 54 Sur 0 -- -- 56
2020-11-14 09:00:00 15.9 36 Sur 62 Sur 0 -- -- 56
2020-11-14 08:00:00 15.8 39 Sur 62 Sudoeste 0 -- -- 56
2020-11-14 07:00:00 15.7 31 Sudoeste 65 Sur 0 -- -- 57
2020-11-14 06:00:00 16.4 44 Sur 71 Sudoeste 0 -- -- 54
2020-11-14 05:00:00 16.8 47 Sudoeste 74 Sur 0 -- -- 52
2020-11-14 04:00:00 16.5 51 Sur 75 Sudoeste 0 -- -- 53
2020-11-14 03:00:00 16.1 32 Sur 59 Sur 0 -- -- 54
2020-11-14 02:00:00 16.4 33 Sur 56 Sur 0 -- -- 53
2020-11-14 01:00:00 15.8 5 Este 21 Noroeste 0 -- -- 57
2020-11-14 00:00:00 15.4 6 Este 19 Este 0 -- -- 61
2020-11-13 23:00:00 13.5 12 Este 20 Este 0 -- -- 74
2020-11-13 22:00:00 13.4 9 Sudeste 17 Sudeste 0 -- -- 72
2020-11-13 21:00:00 14.8 10 Sudeste 17 Sudeste 0 -- -- 63
2020-11-13 20:00:00 14.9 8 Sudeste 15 Sudeste 0 -- -- 61
2020-11-13 19:00:00 15.9 10 Sudeste 22 Sudeste 0 -- -- 61
2020-11-13 18:00:00 16.1 10 Sudeste 17 Sudeste 0 -- -- 68
2020-11-13 17:00:00 16.8 8 Sudeste 13 Sudeste 0 -- -- 65
2020-11-13 16:00:00 20.2 6 Sur 14 Este 0 -- -- 51
2020-11-13 15:00:00 20.6 6 Sudeste 10 Este 0 -- -- 51
2020-11-13 14:00:00 20.2 3 Norte 13 Sur 0 -- -- 52
2020-11-13 13:00:00 20.5 6 Este 13 Este 0 -- -- 51
2020-11-13 12:00:00 20.5 2 Noroeste 16 Sudoeste 0 -- -- 48
2020-11-13 11:00:00 19.9 11 Sudoeste 25 Sur 0 -- -- 48
2020-11-13 10:00:00 18.5 18 Sudoeste 33 Oeste 0 -- -- 50
2020-11-13 09:00:00 17.6 17 Sudoeste 42 Sudoeste 0 -- -- 52
2020-11-13 08:00:00 17.7 20 Sudoeste 40 Sudoeste 0 -- -- 52
2020-11-13 07:00:00 18 16 Sudoeste 39 Sudoeste 0 -- -- 48
2020-11-13 06:00:00 16.9 18 Sur 46 Sur 0 -- -- 49
2020-11-13 05:00:00 18.6 26 Sudoeste 55 Sudoeste 0 -- -- 44
2020-11-13 04:00:00 19 36 Sudoeste 52 Sudoeste 0 -- -- 41
2020-11-13 03:00:00 18.3 13 Sudoeste 36 Sur 0 -- -- 47
2020-11-13 02:00:00 18.2 9 Noroeste 37 Sudoeste 0 -- -- 50
2020-11-13 01:00:00 18.7 14 Sur 46 Sudoeste 0 -- -- 48
2020-11-13 00:00:00 17.6 12 Sudeste 28 Sudoeste 0 -- -- 47
2020-11-12 23:00:00 17.9 11 Sur 24 Sur 0 -- -- 45
2020-11-12 22:00:00 17.1 7 Sur 21 Sur 0 -- -- 54
2020-11-12 21:00:00 15.6 4 Este 15 Sudeste 0 -- -- 69
2020-11-12 20:00:00 16.5 11 Sudeste 22 Sudeste 0 -- -- 69
2020-11-12 19:00:00 16.3 14 Sudeste 24 Sudeste 0 -- -- 62
2020-11-12 18:00:00 15 13 Sudeste 25 Este 0 -- -- 76
2020-11-12 17:00:00 15.3 15 Sudeste 22 Sudeste 0 -- -- 71
2020-11-12 16:00:00 16.8 13 Sudeste 20 Este 0 -- -- 75
2020-11-12 15:00:00 18 9 Este 14 Este 0 -- -- 65
2020-11-12 14:00:00 18.4 9 Este 13 Este 0 -- -- 55
2020-11-12 13:00:00 18.8 8 Este 11 Este 0 -- -- 59
2020-11-12 12:00:00 18.7 3 Oeste 6 Nordeste 0 -- -- 53
2020-11-12 11:00:00 19.5 4 Sudeste 10 Sudeste 0 -- -- 53
2020-11-12 10:00:00 18.2 2 Sudoeste 11 Oeste 0 -- -- 56
2020-11-12 09:00:00 15.9 7 Sur 15 Sur 0 -- -- 59
2020-11-12 08:00:00 15.2 2 Nordeste 9 Sudeste 0 -- -- 61
2020-11-12 07:00:00 15.4 0 Calma 6 Sur 0 -- -- 59
2020-11-12 06:00:00 15.6 0 Calma 9 Sudoeste 0 -- -- 52
2020-11-12 05:00:00 15.9 0 Calma 6 Este 0 -- -- 51
2020-11-12 04:00:00 15.4 4 Este 13 Sudoeste 0 -- -- 55
2020-11-12 03:00:00 16.1 4 Sudeste 9 Sur 0 -- -- 52
2020-11-12 02:00:00 17.3 8 Sudoeste 29 Oeste 0 -- -- 46
2020-11-12 01:00:00 17.7 12 Sudoeste 29 Sudoeste 0 -- -- 44
2020-11-12 00:00:00 18 6 Sur 23 Sur 0 -- -- 42
2020-11-11 23:00:00 18 13 Sur 27 Sudoeste 0 -- -- 42
2020-11-11 22:00:00 17.6 7 Sudeste 32 Sur 0 -- -- 43
2020-11-11 21:00:00 18.8 19 Sur 42 Sur 0 -- -- 37
2020-11-11 20:00:00 17.8 27 Sur 42 Sur 0 -- -- 44
2020-11-11 19:00:00 17.5 21 Sudoeste 35 Sudoeste 0 -- -- 45
2020-11-11 18:00:00 17 4 Sur 22 Sur 0 -- -- 51
2020-11-11 17:00:00 18.1 4 Sudoeste 27 Sudoeste 0 -- -- 47
2020-11-11 16:00:00 19 13 Sur 35 Sudoeste 0 -- -- 48
2020-11-11 15:00:00 19.6 15 Sudoeste 44 Sudoeste 0 -- -- 48
2020-11-11 14:00:00 18.5 27 Sur 46 Sur 0 -- -- 49
2020-11-11 13:00:00 19.1 26 Sur 52 Sudoeste 0 -- -- 48
2020-11-11 12:00:00 18.2 34 Sur 62 Sur 0 -- -- 52
2020-11-11 11:00:00 17.4 39 Sur 56 Sudoeste 0 -- -- 52
2020-11-11 10:00:00 16.8 36 Sudoeste 66 Sudoeste 0 -- -- 53
2020-11-11 09:00:00 16.2 40 Sur 60 Sur 0 -- -- 55
2020-11-11 08:00:00 16.1 41 Sur 58 Sur 0 -- -- 53
2020-11-11 07:00:00 15.4 30 Sur 43 Sur 0 -- -- 56
2020-11-11 06:00:00 13.1 5 Este 21 Sur 0 -- -- 69
2020-11-11 05:00:00 12.1 3 Nordeste 10 Sudeste 0 -- -- 84
2020-11-11 04:00:00 13 6 Sudeste 12 Sudeste 0 -- -- 75
2020-11-11 03:00:00 13 5 Sudeste 17 Sudeste 0 -- -- 80
2020-11-11 02:00:00 13.1 10 Sudeste 18 Sudeste 0 -- -- 84
2020-11-11 01:00:00 13.2 13 Sudeste 21 Sudeste 0 -- -- 85
2020-11-11 00:00:00 13.7 14 Sudeste 26 Sudeste 0 -- -- 84
2020-11-10 23:00:00 13.7 15 Sudeste 28 Sudeste 0 -- -- 85
2020-11-10 22:00:00 13.8 17 Sudeste 27 Sudeste 0 -- -- 85
2020-11-10 21:00:00 13.7 15 Sudeste 27 Sudeste 0 -- -- 84
2020-11-10 20:00:00 13.7 14 Sudeste 23 Sudeste 0 -- -- 84
2020-11-10 19:00:00 13.8 12 Sudeste 20 Sudeste 0 -- -- 85
2020-11-10 18:00:00 13.8 14 Este 22 Sudeste 0 -- -- 90
2020-11-10 17:00:00 14.4 15 Este 25 Este 0 -- -- 90
2020-11-10 16:00:00 15.1 13 Este 20 Este 0 -- -- 84
2020-11-10 15:00:00 15.9 9 Este 14 Este 0 -- -- 82
2020-11-10 14:00:00 14.8 6 Sudeste 13 Este 0 -- -- 89
2020-11-10 13:00:00 14.9 8 Este 13 Este 0 -- -- 87
2020-11-10 12:00:00 14.4 9 Este 13 Oeste 0 -- -- 91
2020-11-10 11:00:00 15.1 10 Oeste 15 Sudoeste 0 -- -- 87
2020-11-10 10:00:00 15.7 11 Sudoeste 24 Sudoeste 0 -- -- 87
2020-11-10 09:00:00 13.8 17 Oeste 24 Sudoeste 0 -- -- 94
2020-11-10 08:00:00 13.4 15 Oeste 32 Oeste 0 -- -- 97
2020-11-10 07:00:00 13.8 18 Oeste 31 Oeste 4.4 -- -- 98
2020-11-10 06:00:00 13.9 21 Oeste 31 Oeste 7.8 -- -- 96
2020-11-10 05:00:00 14.4 9 Sudoeste 19 Noroeste 0.6 -- -- 89
2020-11-10 04:00:00 15 13 Noroeste 21 Noroeste 0 -- -- 88
2020-11-10 03:00:00 15.2 8 Noroeste 13 Norte 0 -- -- 87
2020-11-10 02:00:00 15.2 7 Noroeste 13 Noroeste 0 -- -- 91
2020-11-10 01:00:00 15.2 8 Noroeste 22 Oeste 0 -- -- 93
2020-11-10 00:00:00 15 14 Oeste 22 Oeste 0 -- -- 92
2020-11-09 23:00:00 14.9 15 Oeste 26 Sudoeste 0 -- -- 90
2020-11-09 22:00:00 15 15 Oeste 23 Sudoeste 0 -- -- 91
2020-11-09 21:00:00 15 16 Oeste 24 Sudoeste 0 -- -- 87
2020-11-09 20:00:00 14.9 6 Sudoeste 13 Sudeste 0 -- -- 75
2020-11-09 19:00:00 14.7 4 Este 10 Este 0 -- -- 74
2020-11-09 18:00:00 15.2 3 Este 9 Norte 0 -- -- 75
2020-11-09 17:00:00 16.7 6 Noroeste 13 Noroeste 0 -- -- 65
2020-11-09 16:00:00 18.6 8 Oeste 13 Oeste 0 -- -- 61
2020-11-09 15:00:00 19.3 10 Oeste 15 Oeste 0 -- -- 56
2020-11-09 14:00:00 21.3 6 Sudoeste 19 Sudoeste 0 -- -- 49
2020-11-09 13:00:00 20.3 9 Sur 35 Sudoeste 0 -- -- 50
2020-11-09 12:00:00 19 19 Sudoeste 38 Sudoeste 0 -- -- 53
2020-11-09 11:00:00 18.3 21 Sur 40 Sur 0 -- -- 54
2020-11-09 10:00:00 17.1 27 Sudoeste 43 Sur 0 -- -- 57
2020-11-09 09:00:00 17.2 26 Sur 46 Sudoeste 0 -- -- 58
2020-11-09 08:00:00 17.4 21 Sur 39 Sur 0 -- -- 57
2020-11-09 07:00:00 17.6 23 Sur 39 Sudoeste 0 -- -- 56
2020-11-09 06:00:00 18 10 Sudoeste 29 Sur 0 -- -- 54
2020-11-09 05:00:00 17.1 3 Sudeste 16 Sur 0 -- -- 57
2020-11-09 04:00:00 17.7 10 Sudoeste 28 Sudoeste 0 -- -- 54
2020-11-09 03:00:00 17.8 8 Sur 37 Sudoeste 0 -- -- 54
2020-11-09 02:00:00 18.4 17 Sur 35 Sudoeste 0 -- -- 53
2020-11-09 01:00:00 18.5 15 Sur 49 Sur 0 -- -- 54
2020-11-09 00:00:00 17.9 12 Sur 30 Sudoeste 0 -- -- 57
2020-11-08 23:00:00 17.1 4 Este 21 Sur 0 -- -- 63
2020-11-08 22:00:00 18.5 7 Sur 32 Oeste 0 -- -- 55
2020-11-08 21:00:00 17.6 5 Este 20 Este 0 -- -- 60
2020-11-08 20:00:00 17.5 9 Este 21 Este 0 -- -- 62
2020-11-08 19:00:00 17.6 4 Nordeste 19 Este 0 -- -- 62
2020-11-08 18:00:00 18.2 11 Sudeste 21 Este 0 -- -- 59
2020-11-08 17:00:00 19.1 6 Sudeste 18 Sudeste 0 -- -- 55
2020-11-08 16:00:00 21.4 6 Sur 21 Este 0 -- -- 48
2020-11-08 15:00:00 21.7 5 Sudeste 20 Sur 0 -- -- 50
2020-11-08 14:00:00 21.9 6 Sur 16 Sudeste 0 -- -- 45
2020-11-08 13:00:00 21.3 4 Sudeste 15 Sudeste 0 -- -- 48
2020-11-08 12:00:00 21.6 8 Sudeste 28 Nordeste 0 -- -- 45
2020-11-08 11:00:00 20.4 10 Este 37 Sudoeste 0 -- -- 45
2020-11-08 10:00:00 18.9 10 Sur 53 Sur 0 -- -- 50
2020-11-08 09:00:00 18.2 13 Sur 31 Sur 0 -- -- 51
2020-11-08 08:00:00 16.9 10 Este 47 Sudoeste 0 -- -- 60
2020-11-08 07:00:00 17.6 28 Sur 55 Sur 0 -- -- 56
2020-11-08 06:00:00 17.7 30 Sur 49 Sur 0 -- -- 56
2020-11-08 05:00:00 17.4 26 Sur 40 Sur 0 -- -- 56
2020-11-08 04:00:00 17.7 22 Sur 45 Sur 0 -- -- 55
2020-11-08 03:00:00 17.8 31 Sur 47 Sur 0 -- -- 55
2020-11-08 02:00:00 18.2 28 Sudoeste 47 Sur 0 -- -- 53
2020-11-08 01:00:00 18.4 31 Sudoeste 48 Sudoeste 0 -- -- 53
2020-11-08 00:00:00 18.5 27 Sudoeste 44 Sudoeste 0 -- -- 51
2020-11-07 23:00:00 18.4 27 Sudoeste 38 Sudoeste 0 -- -- 52
2020-11-07 22:00:00 17.8 9 Sur 26 Sudoeste 0 -- -- 57
2020-11-07 21:00:00 17.1 9 Sudoeste 23 Sudoeste 0 -- -- 61
2020-11-07 20:00:00 16.2 8 Sudoeste 21 Sudoeste 0 -- -- 67
2020-11-07 19:00:00 16.3 14 Sudoeste 32 Sudoeste 0 -- -- 79
2020-11-07 18:00:00 18.3 20 Sudoeste 36 Sur 0 -- -- 60
2020-11-07 17:00:00 18.6 18 Sur 35 Sur 0 -- -- 63
2020-11-07 16:00:00 18.7 20 Sur 38 Sur 0.2 -- -- 65
2020-11-07 15:00:00 18.2 10 Sur 24 Sur 0 -- -- 71
2020-11-07 14:00:00 16.3 9 Sudeste 15 Este 0 -- -- 89
2020-11-07 13:00:00 16.7 4 Sudeste 17 Sudeste 0 -- -- 85
2020-11-07 12:00:00 15.5 12 Sudeste 20 Este 0 -- -- 89
2020-11-07 11:00:00 15 8 Sudeste 16 Sudeste 0 -- -- 91
2020-11-07 10:00:00 13.9 11 Sudeste 15 Sudeste 0.2 -- -- 94
2020-11-07 09:00:00 13.9 10 Sudoeste 17 Sudeste 2.8 -- -- 93
2020-11-07 08:00:00 14.4 14 Sur 46 Sudoeste 6.4 -- -- 86
2020-11-07 07:00:00 16.2 26 Sudoeste 48 Sudoeste 1.2 -- -- 82
2020-11-07 06:00:00 19.2 10 Sudeste 27 Este 0 -- -- 65
2020-11-07 05:00:00 19.6 13 Este 33 Este 0 -- -- 64
2020-11-07 04:00:00 19.2 21 Este 33 Este 0 -- -- 66
2020-11-07 03:00:00 19 14 Este 27 Este 0 -- -- 65
2020-11-07 02:00:00 19.5 22 Este 38 Este 0 -- -- 63
2020-11-07 01:00:00 20.2 18 Sudeste 41 Este 0 -- -- 59
2020-11-07 00:00:00 20.2 12 Sudeste 36 Sudeste 0 -- -- 60
2020-11-06 23:00:00 20.3 19 Este 52 Sudeste 0 -- -- 60
2020-11-06 22:00:00 20.8 22 Sudeste 55 Este 0 -- -- 57
2020-11-06 21:00:00 20.5 22 Sudeste 51 Este 0 -- -- 59
2020-11-06 20:00:00 20.7 29 Este 52 Este 0 -- -- 58
2020-11-06 19:00:00 20.4 15 Sur 36 Sur 0 -- -- 60
2020-11-06 18:00:00 20.3 17 Sudeste 44 Sudeste 0 -- -- 60
2020-11-06 17:00:00 20.4 19 Sur 42 Sur 0 -- -- 59
2020-11-06 16:00:00 20.2 18 Este 36 Este 0 -- -- 60
2020-11-06 15:00:00 20.7 22 Este 43 Sudeste 0 -- -- 60
2020-11-06 14:00:00 21 15 Sudeste 44 Sudeste 0 -- -- 57
2020-11-06 13:00:00 19.9 20 Este 37 Este 0 -- -- 61
2020-11-06 12:00:00 20.3 13 Sudeste 33 Este 0 -- -- 61
2020-11-06 11:00:00 19.6 15 Este 24 Este 0 -- -- 65
2020-11-06 10:00:00 18.9 12 Sur 34 Sudeste 0 -- -- 65
2020-11-06 09:00:00 18.4 13 Sudeste 36 Sur 0 -- -- 64
2020-11-06 08:00:00 17.9 14 Sudeste 42 Sudeste 0 -- -- 66
2020-11-06 07:00:00 17.3 13 Sudeste 28 Sudeste 0 -- -- 70
2020-11-06 06:00:00 16.9 8 Sudeste 34 Este 0 -- -- 73
2020-11-06 05:00:00 16.1 17 Este 34 Este 0 -- -- 77
2020-11-06 04:00:00 15.5 13 Este 29 Sudeste 0 -- -- 77
2020-11-06 03:00:00 14.8 5 Sudeste 29 Sudeste 0 -- -- 79
2020-11-06 02:00:00 14.5 10 Sudeste 34 Este 0 -- -- 88
2020-11-06 01:00:00 13.9 13 Sudeste 20 Este 0.2 -- -- 89
2020-11-06 00:00:00 14 10 Este 24 Este 0 -- -- 83
2020-11-05 23:00:00 14.1 14 Este 24 Sudeste 0 -- -- 83
2020-11-05 22:00:00 13.5 16 Sudeste 37 Este 0 -- -- 84
2020-11-05 21:00:00 13.4 17 Este 28 Este 0 -- -- 82
2020-11-05 20:00:00 13.5 18 Este 32 Este 0 -- -- 81
2020-11-05 19:00:00 13.4 18 Este 30 Este 0 -- -- 82
2020-11-05 18:00:00 13.3 19 Este 38 Este 0 -- -- 78
2020-11-05 17:00:00 13.5 30 Este 43 Este 0 -- -- 75
2020-11-05 16:00:00 13.5 31 Este 47 Este 0 -- -- 73
2020-11-05 15:00:00 13.5 29 Este 42 Este 0 -- -- 75
2020-11-05 14:00:00 12.9 31 Este 44 Este 0 -- -- 79
2020-11-05 13:00:00 13.2 27 Este 34 Este 0 -- -- 75
2020-11-05 12:00:00 13.1 22 Este 34 Este 0 -- -- 74
2020-11-05 11:00:00 12.7 28 Este 39 Este 0 -- -- 74
2020-11-05 10:00:00 12 23 Este 34 Este 0 -- -- 81
2020-11-05 09:00:00 11.5 17 Este 31 Este 0 -- -- 76
2020-11-05 08:00:00 10.4 14 Sudeste 27 Este 0 -- -- 81
2020-11-05 07:00:00 10.1 12 Sudeste 22 Sudeste 0 -- -- 80
2020-11-05 06:00:00 10.4 13 Sudeste 26 Sudeste 0 -- -- 78
2020-11-05 05:00:00 10.7 14 Este 38 Este 0 -- -- 76
2020-11-05 04:00:00 11.2 28 Este 44 Este 0 -- -- 76
2020-11-05 03:00:00 11.4 31 Este 45 Este 0 -- -- 74
2020-11-05 02:00:00 11.5 35 Este 48 Este 0 -- -- 71
2020-11-05 01:00:00 11.7 36 Este 50 Este 0 -- -- 69
2020-11-05 00:00:00 11.7 38 Este 57 Este 0 -- -- 69
2020-11-04 23:00:00 12 44 Este 59 Este 0 -- -- 71
2020-11-04 22:00:00 11.9 45 Este 57 Este 0 -- -- 68
2020-11-04 21:00:00 12 46 Este 59 Este 0 -- -- 65
2020-11-04 20:00:00 12.1 42 Este 53 Este 0 -- -- 67
2020-11-04 19:00:00 12.1 41 Este 52 Este 0 -- -- 70
2020-11-04 18:00:00 12 43 Este 51 Este 0 -- -- 66
2020-11-04 17:00:00 11.8 37 Este 50 Este 0 -- -- 69
2020-11-04 16:00:00 11.9 40 Este 50 Este 0 -- -- 65
2020-11-04 15:00:00 11.7 37 Este 48 Este 0 -- -- 67
2020-11-04 14:00:00 12 34 Este 43 Nordeste 0 -- -- 68
2020-11-04 13:00:00 12.1 31 Este 42 Este 0 -- -- 71
2020-11-04 12:00:00 12.2 26 Este 36 Este 0 -- -- 75
2020-11-04 11:00:00 10.6 4 Sudeste 18 Sudoeste 2.4 -- -- 90
2020-11-04 10:00:00 10.3 7 Sudoeste 14 Sudoeste 0 -- -- 91
2020-11-04 09:00:00 9.9 5 Sudoeste 13 Sudoeste 1 -- -- 93
2020-11-04 08:00:00 9.3 6 Oeste 32 Este 4 -- -- 93
2020-11-04 07:00:00 9.5 7 Oeste 26 Este 2.8 -- -- 88
2020-11-04 06:00:00 9.5 6 Sudeste 24 Oeste 0.4 -- -- 90
2020-11-04 05:00:00 9.5 6 Sudoeste 13 Oeste 0.2 -- -- 86
2020-11-04 04:00:00 10 2 Oeste 13 Nordeste 1.2 -- -- 84
2020-11-04 03:00:00 10.1 6 Nordeste 33 Oeste 0.4 -- -- 83
2020-11-04 02:00:00 9.7 4 Sudoeste 17 Oeste 0 -- -- 79
2020-11-04 01:00:00 10.3 9 Oeste 39 Noroeste 0.2 -- -- 70
2020-11-04 00:00:00 11.4 27 Noroeste 40 Noroeste 0 -- -- 70
2020-11-03 23:00:00 10.5 7 Sudeste 16 Sudeste 0 -- -- 78
2020-11-03 22:00:00 11.8 3 Nordeste 17 Noroeste 0 -- -- 72
2020-11-03 21:00:00 11.9 12 Noroeste 35 Noroeste 0 -- -- 68
2020-11-03 20:00:00 11.8 9 Noroeste 44 Noroeste 0.6 -- -- 73
2020-11-03 19:00:00 12.3 15 Noroeste 35 Noroeste 0 -- -- 71
2020-11-03 18:00:00 13.2 25 Noroeste 35 Noroeste 0 -- -- 59
2020-11-03 17:00:00 12.9 24 Noroeste 41 Noroeste 0 -- -- 72
2020-11-03 16:00:00 13.5 33 Noroeste 41 Noroeste 0 -- -- 60
2020-11-03 15:00:00 13.7 30 Noroeste 41 Noroeste 0 -- -- 65
2020-11-03 14:00:00 13.6 27 Noroeste 39 Noroeste 0.2 -- -- 73
2020-11-03 13:00:00 11.6 21 Oeste 52 Noroeste 0.4 -- -- 93
2020-11-03 12:00:00 12.7 38 Noroeste 50 Oeste 0 -- -- 93
2020-11-03 11:00:00 13.2 41 Oeste 57 Oeste 0.2 -- -- 92
2020-11-03 10:00:00 12.6 22 Oeste 45 Oeste 0 -- -- 88
2020-11-03 09:00:00 12.6 17 Oeste 37 Oeste 0 -- -- 88
2020-11-03 08:00:00 11.6 18 Oeste 48 Oeste 1 -- -- 88
2020-11-03 07:00:00 11.8 17 Oeste 39 Oeste 0 -- -- 93
2020-11-03 06:00:00 12 33 Oeste 42 Oeste 1 -- -- 94
2020-11-03 05:00:00 11.9 17 Oeste 28 Oeste 0 -- -- 92
2020-11-03 04:00:00 11.8 13 Oeste 22 Oeste 0.2 -- -- 92
2020-11-03 03:00:00 11.8 13 Oeste 26 Noroeste 0.8 -- -- 95
2020-11-03 02:00:00 12.3 12 Oeste 22 Noroeste 1.6 -- -- 94
2020-11-03 01:00:00 12.4 15 Noroeste 30 Noroeste 0.2 -- -- 93
2020-11-03 00:00:00 13 24 Noroeste 30 Noroeste 0 -- -- 90
2020-11-02 23:00:00 12.6 16 Oeste 22 Oeste 0.2 -- -- 94
2020-11-02 22:00:00 13.5 12 Oeste 23 Noroeste 0 -- -- 85
2020-11-02 21:00:00 13.4 20 Noroeste 34 Noroeste 0 -- -- 88
2020-11-02 20:00:00 14.3 28 Noroeste 43 Noroeste 0 -- -- 90
2020-11-02 19:00:00 15.6 35 Oeste 54 Oeste 0 -- -- 76
2020-11-02 18:00:00 14.4 45 Oeste 69 Oeste 0 -- -- 85
2020-11-02 17:00:00 15.9 53 Oeste 72 Oeste 0 -- -- 82
2020-11-02 16:00:00 15.8 57 Oeste 73 Oeste 0 -- -- 91
2020-11-02 15:00:00 16.7 59 Oeste 83 Oeste 0 -- -- 91
2020-11-02 14:00:00 25.3 16 Sudoeste 37 Sur 0 -- -- 46
2020-11-02 13:00:00 24.3 19 Sur 36 Sur 0 -- -- 50
2020-11-02 12:00:00 23.6 18 Sur 39 Sudoeste 0 -- -- 52
2020-11-02 11:00:00 22.2 18 Sur 38 Sudoeste 0 -- -- 56
2020-11-02 10:00:00 21.3 26 Sudoeste 39 Sudoeste 0 -- -- 58
2020-11-02 09:00:00 20.6 25 Sudoeste 38 Sudoeste 0 -- -- 60
2020-11-02 08:00:00 20.7 25 Sudoeste 44 Sudoeste 0 -- -- 59
2020-11-02 07:00:00 20.8 26 Sudoeste 45 Sudoeste 0 -- -- 59
2020-11-02 06:00:00 20.6 16 Sudoeste 38 Sudoeste 0 -- -- 62
2020-11-02 05:00:00 20.3 9 Sudoeste 20 Sur 0 -- -- 65
2020-11-02 04:00:00 19.2 6 Este 19 Sudoeste 0 -- -- 71
2020-11-02 03:00:00 19.5 4 Sur 24 Sudoeste 0 -- -- 69
2020-11-02 02:00:00 20.4 8 Sur 30 Oeste 0 -- -- 65
2020-11-02 01:00:00 21.2 14 Sudoeste 47 Sudoeste 0 -- -- 62
2020-11-02 00:00:00 22.1 32 Sudoeste 53 Sudoeste 0 -- -- 57
2020-11-01 23:00:00 22.1 36 Sudoeste 55 Sur 0 -- -- 58
2020-11-01 22:00:00 22.2 35 Sudoeste 58 Sudoeste 0 -- -- 56
2020-11-01 21:00:00 22.3 40 Sudoeste 63 Sudoeste 0 -- -- 55
2020-11-01 20:00:00 22.6 34 Sur 57 Sudoeste 0 -- -- 54
2020-11-01 19:00:00 23.1 41 Sur 59 Sur 0 -- -- 52
2020-11-01 18:00:00 23.2 20 Sur 32 Sur 0 -- -- 51
2020-11-01 17:00:00 23 9 Sur 31 Sur 0 -- -- 55
2020-11-01 16:00:00 24.6 16 Sur 33 Sur 0 -- -- 50
2020-11-01 15:00:00 24.1 6 Sur 14 Norte 0 -- -- 54
2020-11-01 14:00:00 24.6 3 Noroeste 9 Noroeste 0 -- -- 52
2020-11-01 13:00:00 24.9 4 Norte 15 Sudeste 0 -- -- 50
2020-11-01 12:00:00 26.1 6 Sudeste 14 Sudeste 0 -- -- 48
2020-11-01 11:00:00 24.8 3 Sudeste 23 Sur 0 -- -- 48
2020-11-01 10:00:00 23.9 19 Sur 38 Sur 0 -- -- 46
2020-11-01 09:00:00 22.9 26 Sur 42 Sur 0 -- -- 47
2020-11-01 08:00:00 23 24 Sur 40 Sur 0 -- -- 46
2020-11-01 07:00:00 22.8 21 Sudoeste 36 Sur 0 -- -- 45
2020-11-01 06:00:00 22.2 17 Sur 44 Sur 0 -- -- 47
2020-11-01 05:00:00 22.3 30 Sudoeste 49 Sur 0 -- -- 48
2020-11-01 04:00:00 21.7 27 Sudoeste 49 Sudoeste 0 -- -- 50
2020-11-01 03:00:00 21.1 10 Sur 43 Sudoeste 0 -- -- 53
2020-11-01 02:00:00 21.2 27 Sudoeste 41 Sudoeste 0 -- -- 52
2020-11-01 01:00:00 21 23 Sur 45 Sudoeste 0 -- -- 53
2020-11-01 00:00:00 21.1 32 Sudoeste 51 Sudoeste 0 -- -- 51
2020-10-31 23:00:00 20.9 23 Sudoeste 51 Sur 0 -- -- 53
2020-10-31 22:00:00 21.8 25 Sudoeste 46 Sudoeste 0 -- -- 49
2020-10-31 21:00:00 22.3 30 Sur 43 Sudoeste 0 -- -- 46
2020-10-31 20:00:00 22.1 26 Sudoeste 41 Sur 0 -- -- 46
2020-10-31 19:00:00 22.2 13 Sur 25 Sur 0 -- -- 48
2020-10-31 18:00:00 22.8 16 Sur 28 Sur 0 -- -- 45
2020-10-31 17:00:00 23.1 7 Sudeste 18 Sudoeste 0 -- -- 47
2020-10-31 16:00:00 25.7 3 Sur 20 Sur 0 -- -- 43
2020-10-31 15:00:00 25.1 10 Sur 29 Sudoeste 0 -- -- 43
2020-10-31 14:00:00 24.4 13 Sudoeste 40 Sudoeste 0 -- -- 44
2020-10-31 13:00:00 23.1 22 Sudoeste 43 Sudoeste 0 -- -- 45
2020-10-31 12:00:00 22.7 28 Sudoeste 50 Sudoeste 0 -- -- 43
2020-10-31 11:00:00 23.2 19 Sur 48 Sur 0 -- -- 43
2020-10-31 10:00:00 21.6 33 Sur 56 Sudoeste 0 -- -- 46
2020-10-31 09:00:00 21.3 35 Sudoeste 56 Sudoeste 0 -- -- 46
2020-10-31 08:00:00 20.7 39 Sudoeste 59 Sudoeste 0 -- -- 46
2020-10-31 07:00:00 20.5 35 Sudoeste 55 Sudoeste 0 -- -- 50
2020-10-31 06:00:00 19.5 17 Sur 36 Sudoeste 0 -- -- 58
2020-10-31 05:00:00 17.2 4 Sudoeste 32 Sur 0 -- -- 67
2020-10-31 04:00:00 14.4 4 Sudeste 16 Este 0 -- -- 79
2020-10-31 03:00:00 15.1 10 Sudeste 17 Sudeste 0 -- -- 74
2020-10-31 02:00:00 14.3 13 Sudeste 19 Sudeste 0 -- -- 82
2020-10-31 01:00:00 14 13 Sudeste 19 Sudeste 0 -- -- 88
2020-10-31 00:00:00 13.5 10 Sudeste 15 Sudeste 0 -- -- 92
2020-10-30 23:00:00 13.4 3 Sudeste 13 Sudeste 0 -- -- 92
2020-10-30 22:00:00 13.5 8 Sudeste 13 Sudeste 0 -- -- 91
2020-10-30 21:00:00 13.9 9 Sudeste 18 Sudeste 0 -- -- 93
2020-10-30 20:00:00 14.1 8 Sudeste 15 Sudeste 0 -- -- 94
2020-10-30 19:00:00 14 7 Sudeste 12 Este 0 -- -- 94
2020-10-30 18:00:00 14.4 5 Este 6 Este 0 -- -- 91
2020-10-30 17:00:00 15.4 3 Oeste 12 Oeste 0 -- -- 90
2020-10-30 16:00:00 16.4 8 Oeste 13 Oeste 0 -- -- 88
2020-10-30 15:00:00 16.5 9 Oeste 16 Oeste 0 -- -- 86
2020-10-30 14:00:00 16.2 13 Oeste 18 Oeste 0 -- -- 88
2020-10-30 13:00:00 15.7 15 Oeste 19 Oeste 0 -- -- 90
2020-10-30 12:00:00 15.6 14 Oeste 18 Oeste 0 -- -- 89
2020-10-30 11:00:00 15.3 14 Oeste 21 Oeste 0 -- -- 91
2020-10-30 10:00:00 15 13 Oeste 18 Oeste 0 -- -- 91
2020-10-30 09:00:00 14.1 12 Sudoeste 17 Oeste 0 -- -- 93
2020-10-30 08:00:00 12.8 9 Oeste 13 Sudoeste 0 -- -- 95
2020-10-30 07:00:00 13.1 10 Sudoeste 16 Sudoeste 0 -- -- 95
2020-10-30 06:00:00 13.3 11 Sudoeste 16 Sudoeste 0 -- -- 94
2020-10-30 05:00:00 13 11 Sudoeste 15 Sudoeste 0 -- -- 90
2020-10-30 04:00:00 13 7 Sudoeste 13 Oeste 0 -- -- 91
2020-10-30 03:00:00 13.4 8 Sudoeste 14 Sudoeste 0 -- -- 93
2020-10-30 02:00:00 13.9 5 Sudoeste 10 Este 0 -- -- 89
2020-10-30 01:00:00 14.7 7 Sudeste 19 Sudeste 0 -- -- 91
2020-10-30 00:00:00 15 13 Sudeste 23 Este 0 -- -- 89
2020-10-29 23:00:00 15 14 Sudeste 25 Sudeste 0 -- -- 86
2020-10-29 22:00:00 15.1 14 Sudeste 23 Este 0 -- -- 82
2020-10-29 21:00:00 15.2 14 Sudeste 24 Sudeste 0 -- -- 78
2020-10-29 20:00:00 15.1 14 Sudeste 28 Sudeste 0 -- -- 79
2020-10-29 19:00:00 15.1 15 Sudeste 25 Sudeste 0 -- -- 82
2020-10-29 18:00:00 15.3 15 Este 22 Sudeste 0 -- -- 85
2020-10-29 17:00:00 15.8 14 Sudeste 26 Este 0 -- -- 84
2020-10-29 16:00:00 16.8 17 Este 24 Este 0 -- -- 79
2020-10-29 15:00:00 17.2 15 Este 23 Este 0 -- -- 76
2020-10-29 14:00:00 17.7 12 Este 17 Sudeste 0 -- -- 75
2020-10-29 13:00:00 17.1 10 Este 13 Este 0 -- -- 79
2020-10-29 12:00:00 16.9 3 Noroeste 12 Oeste 0 -- -- 75
2020-10-29 11:00:00 16.2 5 Oeste 9 Oeste 0 -- -- 80
2020-10-29 10:00:00 16 3 Oeste 6 Noroeste 0 -- -- 80
2020-10-29 09:00:00 15.2 6 Sudoeste 9 Oeste 0 -- -- 76
2020-10-29 08:00:00 13.5 7 Sudeste 9 Sudeste 0 -- -- 72
2020-10-29 07:00:00 13.7 8 Oeste 12 Oeste 0 -- -- 84
2020-10-29 06:00:00 14.2 6 Sur 12 Sudeste 0 -- -- 68
2020-10-29 05:00:00 14.4 7 Sudeste 8 Sudeste 0 -- -- 69
2020-10-29 04:00:00 14.9 2 Sudoeste 5 Oeste 0 -- -- 77
2020-10-29 03:00:00 14.9 0 Calma 4 Sudoeste 0 -- -- 79
2020-10-29 02:00:00 15.2 0 Calma 6 Sur 0 -- -- 78
2020-10-29 01:00:00 14.7 4 Sur 8 Sudoeste 0 -- -- 74
2020-10-29 00:00:00 14.8 5 Oeste 11 Oeste 0 -- -- 77
2020-10-28 23:00:00 14.5 3 Oeste 16 Oeste 0 -- -- 73
2020-10-28 22:00:00 14.9 5 Oeste 18 Sudoeste 0 -- -- 75
2020-10-28 21:00:00 14.9 9 Oeste 18 Oeste 0 -- -- 72
2020-10-28 20:00:00 14.8 10 Oeste 24 Oeste 0 -- -- 72
2020-10-28 19:00:00 15.4 6 Oeste 21 Oeste 0 -- -- 69
2020-10-28 18:00:00 15.6 9 Oeste 18 Sudoeste 0 -- -- 66
2020-10-28 17:00:00 15.8 8 Oeste 22 Oeste 0 -- -- 69
2020-10-28 16:00:00 16.1 12 Oeste 29 Oeste 0 -- -- 69
2020-10-28 15:00:00 16.1 23 Oeste 36 Oeste 0 -- -- 72
2020-10-28 14:00:00 16.2 28 Oeste 36 Oeste 0 -- -- 72
2020-10-28 13:00:00 16.4 17 Oeste 28 Sudoeste 0 -- -- 72
2020-10-28 12:00:00 16.2 15 Oeste 26 Oeste 0 -- -- 73
2020-10-28 11:00:00 16.1 11 Oeste 22 Oeste 0 -- -- 81
2020-10-28 10:00:00 15 14 Oeste 24 Oeste 0 -- -- 85
2020-10-28 09:00:00 14.3 14 Oeste 24 Oeste 0 -- -- 90
2020-10-28 08:00:00 13.8 12 Sudoeste 27 Oeste 0 -- -- 94
2020-10-28 07:00:00 13.4 19 Oeste 30 Oeste 0 -- -- 99
2020-10-28 06:00:00 13.2 19 Oeste 42 Oeste 1.6 -- -- 100
2020-10-28 05:00:00 13.5 29 Oeste 42 Oeste 0.4 -- -- 97
2020-10-28 04:00:00 14.2 28 Oeste 39 Oeste 0.2 -- -- 97
2020-10-28 03:00:00 14.3 15 Oeste 26 Oeste 0 -- -- 98
2020-10-28 02:00:00 14.3 17 Oeste 29 Oeste 0.2 -- -- 96
2020-10-28 01:00:00 14.5 15 Oeste 32 Oeste 0 -- -- 97
2020-10-28 00:00:00 15 21 Oeste 44 Oeste 0.8 -- -- 97